Time;durP1;ratioP1;P1;durP2;ratioP2;P2;SDS_P1;SDS_P2;PMS_P1;PMS_P2;Temp;Humidity;BMP_temperature;BMP_pressure;BME280_temperature;BME280_humidity;BME280_pressure;Samples;Min_cycle;Max_cycle;Signal;HPM_P1;HPM_P2
2023/09/06 00:01:07;;;;;;;6.62;3.20;;;24.10;99.90;;;;;;1908537;75;21102;-77
2023/09/06 00:03:59;;;;;;;5.00;3.47;;;24.10;99.90;;;;;;1908839;75;21109;-77
2023/09/06 00:06:51;;;;;;;4.65;3.25;;;24.00;99.90;;;;;;1889815;75;21601;-77
2023/09/06 00:09:42;;;;;;;5.08;2.90;;;24.00;99.90;;;;;;1887642;76;21534;-77
2023/09/06 00:12:33;;;;;;;4.87;2.60;;;23.90;99.90;;;;;;1887814;76;21114;-77
2023/09/06 00:15:25;;;;;;;3.20;2.90;;;23.90;99.90;;;;;;1887888;76;21195;-77
2023/09/06 00:18:17;;;;;;;4.78;3.05;;;23.90;99.90;;;;;;1887889;76;21073;-77
2023/09/06 00:21:08;;;;;;;6.42;2.87;;;23.90;99.90;;;;;;1887821;76;21105;-77
2023/09/06 00:24:00;;;;;;;5.40;3.12;;;23.80;99.90;;;;;;1888070;76;21553;-77
2023/09/06 00:26:51;;;;;;;5.67;3.22;;;23.80;99.90;;;;;;1888037;76;21094;-77
2023/09/06 00:29:44;;;;;;;3.47;2.72;;;23.80;99.90;;;;;;1887992;76;21054;-77
2023/09/06 00:32:35;;;;;;;4.70;3.05;;;23.80;99.90;;;;;;1887889;76;21122;-77
2023/09/06 00:35:27;;;;;;;4.33;2.60;;;23.70;99.90;;;;;;1881067;76;21204;-77
2023/09/06 00:38:19;;;;;;;4.35;2.90;;;23.70;99.90;;;;;;1896638;75;21171;-77
2023/09/06 00:41:13;;;;;;;4.03;2.83;;;23.70;99.90;;;;;;1876497;76;21195;-77
2023/09/06 00:44:05;;;;;;;5.67;2.95;;;23.70;99.90;;;;;;1876424;76;21553;-77
2023/09/06 00:46:59;;;;;;;5.33;3.45;;;23.70;99.90;;;;;;1876369;76;21068;-77
2023/09/06 00:49:50;;;;;;;5.42;2.92;;;23.70;99.90;;;;;;1876381;76;21125;-77
2023/09/06 00:52:43;;;;;;;3.60;2.90;;;23.70;99.90;;;;;;1876316;76;21185;-77
2023/09/06 00:55:37;;;;;;;5.92;3.60;;;23.60;99.90;;;;;;1876507;76;21105;-78
2023/09/06 00:58:29;;;;;;;4.55;3.08;;;23.60;99.90;;;;;;1876217;76;21179;-77
2023/09/06 01:01:21;;;;;;;4.12;3.42;;;23.60;99.90;;;;;;1876280;76;21141;-77
2023/09/06 01:04:12;;;;;;;4.75;3.47;;;23.40;99.90;;;;;;1876570;76;21071;-78
2023/09/06 01:07:07;;;;;;;3.67;2.90;;;23.40;99.90;;;;;;1876300;76;21118;-77
2023/09/06 01:09:58;;;;;;;5.25;2.92;;;23.30;99.90;;;;;;1874604;76;21165;-77
2023/09/06 01:12:50;;;;;;;4.42;2.95;;;23.30;99.90;;;;;;1869836;77;21239;-78
2023/09/06 01:15:44;;;;;;;3.95;2.92;;;23.20;99.90;;;;;;1869650;77;21113;-78
2023/09/06 01:18:36;;;;;;;8.70;3.60;;;23.20;99.90;;;;;;1858197;77;21200;-77
2023/09/06 01:21:32;;;;;;;4.35;3.25;;;23.10;99.90;;;;;;1858069;77;21070;-77
2023/09/06 01:24:24;;;;;;;4.10;2.75;;;23.10;99.90;;;;;;1858093;77;21079;-77
2023/09/06 01:27:16;;;;;;;4.62;3.35;;;23.00;99.90;;;;;;1857989;77;21554;-77
2023/09/06 01:30:09;;;;;;;4.08;3.25;;;23.00;99.90;;;;;;1858374;77;21063;-77
2023/09/06 01:33:00;;;;;;;5.28;3.40;;;22.90;99.90;;;;;;1858142;77;21200;-77
2023/09/06 01:35:52;;;;;;;3.90;3.02;;;22.80;99.90;;;;;;1901319;75;21136;-77
2023/09/06 01:38:43;;;;;;;5.35;2.83;;;22.80;99.90;;;;;;1919043;75;21171;-77
2023/09/06 01:41:35;;;;;;;4.37;3.17;;;22.80;99.90;;;;;;1867748;77;21645;-77
2023/09/06 01:44:26;;;;;;;3.77;3.10;;;22.80;99.90;;;;;;1850221;77;21561;-77
2023/09/06 01:47:18;;;;;;;3.40;3.10;;;22.80;99.90;;;;;;1915493;75;21117;-77
2023/09/06 01:50:11;;;;;;;4.17;2.98;;;22.90;99.90;;;;;;1918927;75;21190;-77
2023/09/06 01:53:02;;;;;;;3.90;3.00;;;22.80;99.90;;;;;;1867706;77;21065;-77
2023/09/06 01:55:53;;;;;;;3.05;2.75;;;22.80;99.90;;;;;;1850409;77;21183;-78
2023/09/06 01:58:44;;;;;;;6.20;3.35;;;22.80;99.90;;;;;;1915890;75;21265;-77
2023/09/06 02:01:36;;;;;;;2.90;2.60;;;22.70;99.90;;;;;;1919019;75;21181;-77
2023/09/06 02:04:28;;;;;;;4.08;2.90;;;22.60;99.90;;;;;;1867912;77;21117;-77
2023/09/06 02:07:19;;;;;;;4.95;2.98;;;22.50;99.90;;;;;;1850350;77;21191;-77
2023/09/06 02:10:11;;;;;;;4.92;2.87;;;22.50;99.90;;;;;;1915945;75;21134;-77
2023/09/06 02:13:03;;;;;;;4.97;3.17;;;22.40;99.90;;;;;;1919239;75;21178;-77
2023/09/06 02:15:54;;;;;;;3.85;3.25;;;22.30;99.90;;;;;;1867816;77;21117;-77
2023/09/06 02:18:46;;;;;;;5.92;2.65;;;22.20;99.90;;;;;;1850309;77;21120;-76
2023/09/06 02:21:39;;;;;;;4.37;3.42;;;22.20;99.90;;;;;;1915622;75;21116;-78
2023/09/06 02:24:30;;;;;;;4.72;3.33;;;22.20;99.90;;;;;;1918781;75;21171;-77
2023/09/06 02:27:22;;;;;;;8.90;3.10;;;22.10;99.90;;;;;;1867611;77;21181;-77
2023/09/06 02:30:14;;;;;;;6.90;3.55;;;22.00;99.90;;;;;;1850410;77;21158;-77
2023/09/06 02:33:09;;;;;;;7.25;3.40;;;22.00;99.90;;;;;;1915930;75;21187;-77
2023/09/06 02:36:01;;;;;;;9.38;4.03;;;21.90;99.90;;;;;;1884278;75;21525;-78
2023/09/06 02:38:52;;;;;;;3.72;3.20;;;21.80;99.90;;;;;;1876320;76;21122;-77
2023/09/06 02:41:43;;;;;;;4.40;3.40;;;21.70;99.90;;;;;;1870476;77;21109;-77
2023/09/06 02:44:35;;;;;;;5.33;3.20;;;21.70;99.90;;;;;;1870540;77;21180;-77
2023/09/06 02:47:28;;;;;;;6.42;3.25;;;21.60;99.90;;;;;;1870473;77;21101;-77
2023/09/06 02:50:22;;;;;;;5.75;3.40;;;21.60;99.90;;;;;;1870391;77;21241;-77
2023/09/06 02:53:19;;;;;;;4.85;3.30;;;21.50;99.90;;;;;;1870236;77;21141;-77
2023/09/06 02:56:09;;;;;;;4.58;3.35;;;21.40;99.90;;;;;;1870396;77;21110;-77
2023/09/06 02:59:00;;;;;;;3.95;3.22;;;21.40;99.90;;;;;;1870592;77;21176;-77
2023/09/06 03:01:53;;;;;;;5.78;3.42;;;21.30;99.90;;;;;;1870492;77;21073;-77
2023/09/06 03:04:46;;;;;;;6.28;3.67;;;21.30;99.90;;;;;;1870623;77;21199;-77
2023/09/06 03:07:37;;;;;;;3.60;3.20;;;21.30;99.90;;;;;;1870291;77;21059;-77
2023/09/06 03:10:28;;;;;;;5.30;3.30;;;21.30;99.90;;;;;;1870497;77;21133;-77
2023/09/06 03:13:20;;;;;;;4.70;3.58;;;21.20;99.90;;;;;;1870568;77;21398;-77
2023/09/06 03:16:13;;;;;;;6.33;3.75;;;21.20;99.90;;;;;;1870239;77;21845;-77
2023/09/06 03:19:09;;;;;;;6.05;3.35;;;21.20;99.90;;;;;;1869922;77;21062;-77
2023/09/06 03:22:06;;;;;;;5.00;3.45;;;21.10;99.90;;;;;;1869615;77;21106;-77
2023/09/06 03:24:55;;;;;;;7.08;3.42;;;21.10;99.90;;;;;;1869772;77;21199;-77
2023/09/06 03:27:47;;;;;;;5.65;3.50;;;21.10;99.90;;;;;;1869763;77;21120;-76
2023/09/06 03:30:39;;;;;;;4.53;3.30;;;21.10;99.90;;;;;;1870015;77;21129;-77
2023/09/06 03:33:31;;;;;;;3.35;2.90;;;21.00;99.90;;;;;;1869447;77;21201;-77
2023/09/06 03:36:24;;;;;;;5.65;3.02;;;21.00;99.90;;;;;;1907022;75;21146;-77
2023/09/06 03:39:15;;;;;;;3.70;3.30;;;21.00;99.90;;;;;;1909086;75;21146;-76
2023/09/06 03:42:08;;;;;;;3.70;3.27;;;20.90;99.90;;;;;;1909093;75;21148;-77
2023/09/06 03:45:02;;;;;;;5.12;3.50;;;20.90;99.90;;;;;;1909095;75;21109;-77
2023/09/06 03:47:52;;;;;;;4.47;3.33;;;20.80;99.90;;;;;;1909103;75;21503;-77
2023/09/06 03:50:45;;;;;;;6.03;3.17;;;20.80;99.90;;;;;;1908828;75;21190;-77
2023/09/06 03:53:38;;;;;;;4.28;3.30;;;20.80;99.90;;;;;;1909067;75;21129;-77
2023/09/06 03:56:31;;;;;;;3.92;3.33;;;20.80;99.90;;;;;;1909345;75;21163;-76
2023/09/06 03:59:24;;;;;;;4.80;3.02;;;20.80;99.90;;;;;;1909350;75;21129;-77
2023/09/06 04:02:16;;;;;;;4.78;3.08;;;20.80;99.90;;;;;;1909117;75;21142;-78
2023/09/06 04:05:11;;;;;;;4.42;2.90;;;20.80;99.90;;;;;;1909048;75;21534;-77
2023/09/06 04:08:04;;;;;;;5.10;3.42;;;20.90;99.90;;;;;;1841984;78;21427;-77
2023/09/06 04:10:55;;;;;;;4.55;3.05;;;20.80;99.90;;;;;;1841964;78;21532;-77
2023/09/06 04:13:47;;;;;;;4.55;3.10;;;20.80;99.90;;;;;;1841989;76;21090;-77
2023/09/06 04:16:40;;;;;;;4.90;3.27;;;20.80;99.90;;;;;;1853612;77;21176;-77
2023/09/06 04:19:33;;;;;;;6.10;3.10;;;20.80;99.90;;;;;;1853703;77;21611;-77
2023/09/06 04:22:25;;;;;;;4.90;3.35;;;20.80;99.90;;;;;;1853674;77;22249;-76
2023/09/06 04:25:19;;;;;;;6.20;3.20;;;20.80;99.90;;;;;;1853761;77;21062;-78
2023/09/06 04:28:12;;;;;;;6.42;2.92;;;20.80;99.90;;;;;;1853809;77;21641;-78
2023/09/06 04:31:05;;;;;;;3.58;3.00;;;20.80;99.90;;;;;;1853545;77;21146;-77
2023/09/06 04:33:59;;;;;;;8.00;3.55;;;20.80;99.90;;;;;;1853612;77;21081;-77
2023/09/06 04:36:51;;;;;;;8.30;3.35;;;20.80;99.90;;;;;;1853514;77;21104;-77
2023/09/06 04:39:44;;;;;;;5.35;3.42;;;20.80;99.90;;;;;;1842016;78;21153;-77
2023/09/06 04:42:36;;;;;;;11.35;3.37;;;20.80;99.90;;;;;;1842019;78;21206;-77
2023/09/06 04:45:28;;;;;;;6.45;3.30;;;20.80;99.90;;;;;;1842061;78;21077;-77
2023/09/06 04:48:23;;;;;;;5.08;2.87;;;20.80;99.90;;;;;;1842092;78;21138;-77
2023/09/06 04:51:18;;;;;;;6.47;3.25;;;20.80;99.90;;;;;;1842161;78;21198;-77
2023/09/06 04:54:10;;;;;;;4.83;3.33;;;20.70;99.90;;;;;;1842129;78;23060;-77
2023/09/06 04:57:02;;;;;;;5.75;3.45;;;20.70;99.90;;;;;;1842108;78;21144;-77
2023/09/06 04:59:54;;;;;;;5.03;3.12;;;20.70;99.90;;;;;;1842150;78;21078;-77
2023/09/06 05:02:47;;;;;;;7.58;3.12;;;20.70;99.90;;;;;;1842218;78;21112;-77
2023/09/06 05:05:41;;;;;;;4.62;3.30;;;20.70;99.90;;;;;;1853644;77;21639;-77
2023/09/06 05:08:34;;;;;;;5.00;2.98;;;20.60;99.90;;;;;;1853551;77;21093;-77
2023/09/06 05:11:28;;;;;;;5.55;3.20;;;20.70;99.90;;;;;;1853652;77;21707;-77
2023/09/06 05:14:19;;;;;;;5.92;3.45;;;20.70;99.90;;;;;;1853722;76;21271;-77
2023/09/06 05:17:11;;;;;;;8.48;3.45;;;20.70;99.90;;;;;;1854030;77;21185;-77
2023/09/06 05:20:25;;;;;;;5.95;3.02;;;20.70;99.90;;;;;;1854500;77;21576;-77
2023/09/06 05:23:18;;;;;;;8.38;3.50;;;20.80;99.90;;;;;;1854708;77;21168;-77
2023/09/06 05:26:10;;;;;;;4.47;3.10;;;20.80;99.90;;;;;;1854351;77;21070;-77
2023/09/06 05:29:10;;;;;;;4.47;3.22;;;20.80;99.90;;;;;;1854328;77;21109;-77
2023/09/06 05:32:01;;;;;;;5.65;3.42;;;20.70;99.90;;;;;;1854451;77;21101;-77
2023/09/06 05:34:53;;;;;;;6.20;3.52;;;20.70;99.90;;;;;;1854411;77;21081;-77
2023/09/06 05:37:45;;;;;;;5.95;3.27;;;20.60;99.90;;;;;;1854344;77;21520;-77
2023/09/06 05:40:38;;;;;;;4.65;3.30;;;20.60;99.90;;;;;;1854404;77;21116;-77
2023/09/06 05:43:31;;;;;;;4.25;3.47;;;20.60;99.90;;;;;;1854358;77;21638;-77
2023/09/06 05:46:23;;;;;;;5.08;3.25;;;20.60;99.90;;;;;;1854337;77;21545;-77
2023/09/06 05:49:15;;;;;;;4.60;3.20;;;20.60;99.90;;;;;;1854322;77;21137;-78
2023/09/06 05:52:08;;;;;;;6.85;3.58;;;20.70;99.90;;;;;;1853984;77;21080;-77
2023/09/06 05:54:59;;;;;;;4.53;3.70;;;20.70;99.90;;;;;;1854346;77;21189;-78
2023/09/06 05:57:51;;;;;;;4.87;3.30;;;20.70;99.90;;;;;;1854130;77;21207;-77
2023/09/06 06:00:43;;;;;;;6.67;3.22;;;20.80;99.90;;;;;;1854164;77;21521;-77
2023/09/06 06:03:36;;;;;;;5.95;3.42;;;20.80;99.90;;;;;;1854385;77;21144;-77
2023/09/06 06:06:27;;;;;;;7.03;3.85;;;20.90;99.90;;;;;;1854343;77;21214;-77
2023/09/06 06:09:21;;;;;;;7.62;3.80;;;21.10;99.90;;;;;;1854431;77;21147;-77
2023/09/06 06:12:13;;;;;;;8.43;3.50;;;21.10;99.90;;;;;;1854381;77;21117;-77
2023/09/06 06:15:06;;;;;;;5.35;3.00;;;21.10;99.90;;;;;;1853872;76;21139;-77
2023/09/06 06:17:57;;;;;;;5.92;3.17;;;21.10;99.90;;;;;;1853388;77;21081;-77
2023/09/06 06:20:49;;;;;;;4.80;3.40;;;21.00;99.90;;;;;;1853455;77;21576;-78
2023/09/06 06:23:43;;;;;;;6.03;3.70;;;21.10;99.90;;;;;;1853582;77;21128;-78
2023/09/06 06:26:34;;;;;;;4.47;3.33;;;21.10;99.90;;;;;;1853665;77;21077;-77
2023/09/06 06:29:25;;;;;;;8.00;3.20;;;21.10;99.90;;;;;;1853401;77;21230;-77
2023/09/06 06:32:18;;;;;;;4.08;2.80;;;21.10;99.90;;;;;;1853549;77;21101;-79
2023/09/06 06:35:12;;;;;;;7.20;3.52;;;21.20;99.90;;;;;;1853477;77;21149;-77
2023/09/06 06:38:03;;;;;;;5.72;3.50;;;21.30;99.90;;;;;;1853530;77;21650;-77
2023/09/06 06:40:54;;;;;;;9.40;3.30;;;21.40;99.90;;;;;;1853249;77;21557;-77
2023/09/06 06:43:46;;;;;;;5.05;3.33;;;21.50;99.90;;;;;;1853405;77;21112;-77
2023/09/06 06:46:39;;;;;;;7.55;3.00;;;21.50;99.90;;;;;;1852942;77;21143;-78
2023/09/06 06:49:29;;;;;;;8.43;2.80;;;21.60;99.90;;;;;;1852967;77;21195;-77
2023/09/06 06:52:21;;;;;;;7.97;2.77;;;21.70;99.90;;;;;;1853468;77;21171;-77
2023/09/06 06:55:12;;;;;;;6.05;3.05;;;21.70;99.90;;;;;;1853369;77;21198;-78
2023/09/06 06:58:04;;;;;;;7.00;3.80;;;21.80;99.90;;;;;;1853481;77;21076;-77
2023/09/06 07:00:55;;;;;;;5.22;3.42;;;21.90;99.90;;;;;;1853488;77;21116;-78
2023/09/06 07:03:47;;;;;;;7.25;3.20;;;21.90;99.90;;;;;;1853457;77;21587;-78
2023/09/06 07:06:38;;;;;;;5.35;3.55;;;22.00;99.90;;;;;;1853312;77;21073;-77
2023/09/06 07:09:30;;;;;;;9.08;3.25;;;22.10;99.90;;;;;;1853531;77;21174;-78
2023/09/06 07:12:23;;;;;;;5.12;3.25;;;22.00;99.90;;;;;;1853235;77;21148;-78
2023/09/06 07:15:14;;;;;;;7.00;3.50;;;22.10;99.90;;;;;;1852154;76;21153;-77
2023/09/06 07:18:08;;;;;;;5.97;3.30;;;22.20;99.90;;;;;;1853472;77;21699;-77
2023/09/06 07:20:59;;;;;;;5.47;3.65;;;22.20;99.90;;;;;;1853347;77;21163;-77
2023/09/06 07:23:51;;;;;;;5.78;3.40;;;22.20;99.90;;;;;;1841904;78;21630;-77
2023/09/06 07:26:42;;;;;;;7.28;3.67;;;22.20;99.90;;;;;;1842051;78;21121;-77
2023/09/06 07:29:34;;;;;;;7.28;3.58;;;22.30;99.90;;;;;;1842099;78;21107;-78
2023/09/06 07:32:25;;;;;;;7.03;3.70;;;22.30;99.90;;;;;;1842005;78;21168;-78
2023/09/06 07:35:17;;;;;;;5.35;3.52;;;22.40;99.90;;;;;;1841827;78;21586;-77
2023/09/06 07:38:08;;;;;;;4.97;3.27;;;22.50;99.90;;;;;;1841748;78;21187;-77
2023/09/06 07:41:00;;;;;;;6.05;3.40;;;22.60;99.90;;;;;;1841835;78;21631;-78
2023/09/06 07:43:53;;;;;;;6.03;3.72;;;22.80;99.90;;;;;;1841609;78;21152;-78
2023/09/06 07:46:48;;;;;;;5.15;3.98;;;22.90;99.90;;;;;;1852921;77;21108;-78
2023/09/06 07:49:37;;;;;;;6.70;3.90;;;22.90;99.90;;;;;;1841960;78;21158;-78
2023/09/06 07:52:29;;;;;;;5.53;3.75;;;22.90;99.90;;;;;;1853639;77;21190;-77
2023/09/06 07:55:21;;;;;;;4.80;4.22;;;23.00;99.90;;;;;;1853545;77;21158;-77
2023/09/06 07:58:13;;;;;;;6.47;4.12;;;23.00;99.90;;;;;;1853316;77;21109;-77
2023/09/06 08:01:04;;;;;;;5.75;3.90;;;23.10;99.90;;;;;;1853238;77;21206;-78
2023/09/06 08:03:58;;;;;;;9.15;4.45;;;23.20;99.90;;;;;;1841361;78;21224;-77
2023/09/06 08:06:49;;;;;;;4.95;3.75;;;23.20;99.90;;;;;;1841713;78;21132;-77
2023/09/06 08:09:41;;;;;;;7.78;4.50;;;23.20;99.90;;;;;;1853402;77;21117;-77
2023/09/06 08:12:32;;;;;;;5.47;4.03;;;23.30;99.90;;;;;;1853678;77;21116;-77
2023/09/06 08:15:24;;;;;;;8.13;4.97;;;23.40;99.90;;;;;;1853497;77;21085;-77
2023/09/06 08:18:15;;;;;;;6.95;4.30;;;23.50;99.90;;;;;;1854368;76;21880;-79
2023/09/06 08:21:09;;;;;;;10.23;4.30;;;23.40;99.90;;;;;;1854175;77;21188;-77
2023/09/06 08:24:02;;;;;;;7.12;4.20;;;23.50;99.90;;;;;;1854127;77;21125;-77
2023/09/06 08:26:53;;;;;;;5.00;4.30;;;23.50;99.90;;;;;;1854114;77;21143;-77
2023/09/06 08:29:45;;;;;;;4.67;4.03;;;23.50;99.90;;;;;;1853944;77;21124;-77
2023/09/06 08:32:36;;;;;;;10.95;4.70;;;23.60;99.90;;;;;;1854354;77;21190;-77
2023/09/06 08:35:28;;;;;;;7.75;4.60;;;23.70;99.90;;;;;;1854038;77;21654;-77
2023/09/06 08:38:19;;;;;;;5.90;4.65;;;23.80;99.90;;;;;;1854272;77;21565;-79
2023/09/06 08:41:11;;;;;;;9.03;4.60;;;23.90;99.90;;;;;;1854113;77;21128;-77
2023/09/06 08:44:06;;;;;;;5.90;4.40;;;24.00;99.90;;;;;;1854071;77;21195;-77
2023/09/06 08:47:03;;;;;;;5.65;4.78;;;24.10;99.90;;;;;;1854194;77;21165;-78
2023/09/06 08:49:56;;;;;;;5.62;4.22;;;24.10;99.90;;;;;;1854197;77;21649;-78
2023/09/06 08:52:50;;;;;;;7.65;5.17;;;24.10;99.90;;;;;;1853841;77;21157;-77
2023/09/06 08:55:43;;;;;;;8.78;4.37;;;24.20;99.90;;;;;;1854252;77;21117;-78
2023/09/06 08:58:36;;;;;;;5.72;4.40;;;24.30;99.90;;;;;;1854075;77;21218;-78
2023/09/06 09:01:28;;;;;;;8.48;4.40;;;24.40;99.90;;;;;;1853869;77;21202;-77
2023/09/06 09:04:20;;;;;;;4.92;4.22;;;24.50;99.90;;;;;;1854076;77;21154;-78
2023/09/06 09:07:12;;;;;;;8.88;4.78;;;24.50;99.90;;;;;;1854004;77;21127;-78
2023/09/06 09:10:07;;;;;;;7.95;4.60;;;24.60;99.90;;;;;;1854325;77;21113;-78
2023/09/06 09:12:59;;;;;;;8.15;4.70;;;24.60;99.90;;;;;;1854446;77;21117;-77
2023/09/06 09:15:52;;;;;;;6.65;4.53;;;24.70;99.90;;;;;;1854493;77;21648;-78
2023/09/06 09:18:44;;;;;;;9.65;4.95;;;24.70;99.90;;;;;;1853815;77;21202;-77
2023/09/06 09:21:41;;;;;;;6.10;4.67;;;24.80;99.90;;;;;;1853354;77;21191;-77
2023/09/06 09:24:33;;;;;;;9.40;4.60;;;24.90;99.90;;;;;;1853445;77;21085;-78
2023/09/06 09:27:24;;;;;;;8.25;4.90;;;24.90;99.90;;;;;;1853428;77;21070;-77
2023/09/06 09:30:16;;;;;;;6.10;4.17;;;24.90;99.90;;;;;;1853531;77;21093;-78
2023/09/06 09:33:07;;;;;;;6.20;4.22;;;25.10;99.90;;;;;;1853270;77;21209;-77
2023/09/06 09:35:59;;;;;;;4.45;4.00;;;25.10;99.90;;;;;;1853216;77;21116;-77
2023/09/06 09:38:52;;;;;;;4.22;3.83;;;25.10;99.90;;;;;;1853574;77;21211;-77
2023/09/06 09:41:44;;;;;;;6.50;4.03;;;25.20;99.90;;;;;;1853618;77;21073;-77
2023/09/06 09:44:36;;;;;;;6.30;3.90;;;25.10;99.90;;;;;;1853710;77;21140;-78
2023/09/06 09:47:29;;;;;;;4.22;3.83;;;25.30;99.90;;;;;;1853343;77;21211;-78
2023/09/06 09:50:25;;;;;;;5.30;3.80;;;25.30;99.90;;;;;;1853383;77;21125;-77
2023/09/06 09:53:19;;;;;;;6.50;3.83;;;25.30;99.90;;;;;;1853395;77;21109;-77
2023/09/06 09:56:13;;;;;;;5.95;4.10;;;25.30;99.90;;;;;;1853378;77;21206;-78
2023/09/06 09:59:05;;;;;;;5.08;3.40;;;25.40;99.90;;;;;;1853052;77;21073;-78
2023/09/06 10:01:57;;;;;;;4.97;3.75;;;25.50;99.90;;;;;;1853547;77;21157;-78
2023/09/06 10:04:50;;;;;;;5.25;3.95;;;25.60;99.90;;;;;;1853763;77;21151;-77
2023/09/06 10:07:42;;;;;;;6.58;4.40;;;25.60;99.90;;;;;;1853539;77;21191;-78
2023/09/06 10:10:38;;;;;;;6.05;4.12;;;25.70;99.90;;;;;;1853598;77;21130;-78
2023/09/06 10:13:30;;;;;;;5.25;3.83;;;25.80;99.90;;;;;;1853009;77;21190;-78
2023/09/06 10:16:23;;;;;;;8.00;4.00;;;25.80;99.90;;;;;;1853023;77;21159;-78
2023/09/06 10:19:15;;;;;;;6.35;4.00;;;25.90;99.90;;;;;;1847356;76;21210;-77
2023/09/06 10:22:08;;;;;;;12.13;4.20;;;26.00;99.90;;;;;;1841909;78;21223;-77
2023/09/06 10:25:06;;;;;;;5.70;3.95;;;26.10;99.90;;;;;;1842049;78;21235;-77
2023/09/06 10:28:01;;;;;;;4.58;4.08;;;26.10;99.90;;;;;;1853481;77;21121;-77
2023/09/06 10:33:56;;;;;;;5.97;3.92;;;26.20;99.90;;;;;;1957535;72;22254;-79
2023/09/06 10:36:51;;;;;;;;;;;26.20;99.90;;;;;;1886721;76;21133;-78
2023/09/06 10:39:52;;;;;;;7.85;3.80;;;26.20;99.90;;;;;;1884234;76;20497;-78
2023/09/06 10:42:45;;;;;;;4.28;3.50;;;26.20;99.90;;;;;;1884058;76;21118;-78
2023/09/06 10:45:37;;;;;;;4.67;3.55;;;26.30;99.90;;;;;;1884079;76;21176;-78
2023/09/06 10:48:29;;;;;;;7.80;3.80;;;26.50;99.90;;;;;;1884096;76;21114;-78
2023/09/06 10:51:21;;;;;;;4.30;3.37;;;26.50;99.90;;;;;;1884016;76;21166;-78
2023/09/06 10:54:19;;;;;;;4.85;3.35;;;26.60;99.90;;;;;;1883952;76;21416;-78
2023/09/06 10:57:11;;;;;;;5.85;3.17;;;26.60;99.90;;;;;;1884039;76;21177;-78
2023/09/06 11:00:12;;;;;;;3.52;3.22;;;26.60;99.90;;;;;;1884034;76;21164;-78
2023/09/06 11:03:21;;;;;;;4.15;3.22;;;26.80;99.90;;;;;;1883996;76;21090;-78
2023/09/06 11:06:13;;;;;;;6.17;3.35;;;27.00;99.90;;;;;;1884132;76;21141;-78
2023/09/06 11:09:10;;;;;;;6.85;3.12;;;27.10;99.90;;;;;;1884321;76;22143;-77
2023/09/06 11:12:03;;;;;;;3.30;3.00;;;27.10;99.90;;;;;;1884268;76;21469;-77
2023/09/06 11:14:57;;;;;;;3.72;3.33;;;27.20;99.90;;;;;;1884106;76;21141;-78
2023/09/06 11:17:48;;;;;;;3.08;2.85;;;27.30;99.90;;;;;;1884489;76;21116;-78
2023/09/06 11:20:42;;;;;;;5.00;3.40;;;27.30;99.90;;;;;;1884118;76;21582;-78
2023/09/06 11:23:44;;;;;;;3.65;3.08;;;27.40;99.90;;;;;;1884226;76;21125;-77
2023/09/06 11:26:37;;;;;;;3.72;3.12;;;27.40;99.90;;;;;;1884232;76;21166;-78
2023/09/06 11:29:29;;;;;;;3.20;2.90;;;27.50;99.90;;;;;;1884131;76;21113;-78
2023/09/06 11:32:20;;;;;;;3.12;2.80;;;27.50;99.90;;;;;;1884723;76;21102;-78
2023/09/06 11:35:14;;;;;;;8.78;3.47;;;27.60;99.90;;;;;;1893675;76;21301;-78
2023/09/06 11:38:06;;;;;;;3.10;2.90;;;27.60;99.90;;;;;;1893905;76;21098;-78
2023/09/06 11:41:03;;;;;;;3.65;3.30;;;27.70;99.90;;;;;;1893559;76;21106;-78
2023/09/06 11:43:56;;;;;;;3.37;3.10;;;27.80;99.90;;;;;;1893281;76;21191;-78
2023/09/06 11:46:48;;;;;;;4.42;3.20;;;27.80;99.90;;;;;;1893101;76;21635;-78
2023/09/06 11:49:42;;;;;;;3.90;3.15;;;27.90;99.90;;;;;;1893327;76;21335;-78
2023/09/06 11:52:34;;;;;;;6.12;3.37;;;28.00;99.90;;;;;;1893148;76;21556;-78
2023/09/06 11:55:29;;;;;;;4.90;3.27;;;28.10;99.90;;;;;;1893480;76;21614;-77
2023/09/06 11:58:23;;;;;;;3.50;3.20;;;28.10;99.90;;;;;;1893180;76;21102;-78
2023/09/06 12:01:22;;;;;;;3.47;3.05;;;28.10;99.90;;;;;;1893115;76;21128;-78
2023/09/06 12:04:16;;;;;;;3.00;2.70;;;28.00;99.90;;;;;;1893175;76;21114;-79
2023/09/06 12:07:08;;;;;;;3.00;2.80;;;28.10;99.90;;;;;;1893199;76;21109;-79
2023/09/06 12:10:03;;;;;;;3.80;3.20;;;28.20;99.90;;;;;;1892987;76;21217;-79
2023/09/06 12:12:56;;;;;;;3.35;3.05;;;28.20;99.90;;;;;;1893042;76;21549;-78
2023/09/06 12:15:47;;;;;;;3.25;2.67;;;28.30;99.90;;;;;;1893192;76;21638;-79
2023/09/06 12:18:39;;;;;;;5.30;2.90;;;28.40;99.90;;;;;;1893191;76;21102;-78
2023/09/06 12:21:31;;;;;;;4.25;3.10;;;28.50;99.90;;;;;;1893086;76;21324;-78
2023/09/06 12:24:22;;;;;;;3.85;2.95;;;28.40;99.90;;;;;;1893065;76;21149;-79
2023/09/06 12:27:18;;;;;;;3.75;3.02;;;28.50;99.90;;;;;;1892641;76;21105;-78
2023/09/06 12:30:11;;;;;;;4.83;3.00;;;28.60;99.90;;;;;;1892499;76;21187;-78
2023/09/06 12:33:03;;;;;;;3.15;2.70;;;28.70;99.90;;;;;;1892482;76;21183;-78
2023/09/06 12:35:59;;;;;;;3.55;3.00;;;28.70;99.90;;;;;;1892731;76;21175;-78
2023/09/06 12:38:52;;;;;;;3.20;2.90;;;28.70;99.90;;;;;;1893012;76;21130;-78
2023/09/06 12:41:43;;;;;;;3.05;2.80;;;28.70;99.90;;;;;;1893303;76;21106;-78
2023/09/06 12:44:34;;;;;;;3.10;2.55;;;28.70;99.90;;;;;;1893137;76;21146;-78
2023/09/06 12:47:26;;;;;;;5.22;3.30;;;28.70;99.90;;;;;;1892963;76;21117;-78
2023/09/06 12:50:17;;;;;;;4.72;2.80;;;28.70;99.90;;;;;;1893123;76;21584;-79
2023/09/06 12:53:09;;;;;;;3.15;2.42;;;28.90;99.90;;;;;;1893009;76;21070;-79
2023/09/06 12:56:01;;;;;;;5.65;3.20;;;28.90;99.90;;;;;;1893115;76;21098;-78
2023/09/06 12:58:52;;;;;;;3.65;3.35;;;28.90;99.90;;;;;;1892937;76;21196;-78
2023/09/06 13:01:46;;;;;;;3.30;2.72;;;29.00;99.90;;;;;;1893034;76;21136;-79
2023/09/06 13:04:38;;;;;;;3.35;3.05;;;29.00;99.90;;;;;;1893198;76;21655;-78
2023/09/06 13:07:32;;;;;;;5.53;3.08;;;28.90;99.90;;;;;;1892551;76;21551;-78
2023/09/06 13:10:23;;;;;;;3.72;2.85;;;29.00;99.90;;;;;;1892788;76;21278;-78
2023/09/06 13:13:14;;;;;;;3.08;2.77;;;29.10;99.90;;;;;;1892877;76;21109;-78
2023/09/06 13:16:06;;;;;;;4.35;3.02;;;29.10;99.90;;;;;;1893107;76;21098;-79
2023/09/06 13:18:57;;;;;;;2.87;2.42;;;29.10;99.90;;;;;;1893092;76;21561;-78
2023/09/06 13:21:49;;;;;;;3.25;2.60;;;29.10;99.90;;;;;;1893070;76;21672;-78
2023/09/06 13:24:40;;;;;;;4.20;3.00;;;29.20;99.90;;;;;;1893134;76;21085;-78
2023/09/06 13:27:49;;;;;;;4.03;3.00;;;29.10;99.90;;;;;;1893068;76;21181;-77
2023/09/06 13:30:47;;;;;;;3.87;3.10;;;29.10;99.90;;;;;;1893238;76;21613;-78
2023/09/06 13:33:40;;;;;;;4.30;3.20;;;29.20;99.90;;;;;;1893152;76;21167;-77
2023/09/06 13:36:35;;;;;;;3.30;2.70;;;29.10;99.90;;;;;;1893053;76;21102;-78
2023/09/06 13:39:25;;;;;;;5.08;3.15;;;29.20;99.90;;;;;;1892996;76;21054;-78
2023/09/06 13:42:17;;;;;;;3.67;3.00;;;29.30;99.90;;;;;;1892514;76;21182;-78
2023/09/06 13:45:10;;;;;;;4.30;3.02;;;29.30;99.90;;;;;;1892537;76;21161;-78
2023/09/06 13:48:02;;;;;;;6.75;2.98;;;29.30;99.90;;;;;;1893103;76;21171;-78
2023/09/06 13:50:54;;;;;;;3.72;2.85;;;29.30;99.90;;;;;;1893096;76;21158;-78
2023/09/06 13:53:46;;;;;;;2.95;2.37;;;29.40;99.90;;;;;;1892990;76;21110;-78
2023/09/06 13:56:38;;;;;;;2.92;2.55;;;29.30;99.90;;;;;;1892941;76;21574;-78
2023/09/06 13:59:31;;;;;;;5.20;2.80;;;29.30;99.90;;;;;;1893194;76;21581;-78
2023/09/06 14:02:24;;;;;;;3.58;2.80;;;29.40;99.90;;;;;;1893290;76;21561;-78
2023/09/06 14:05:17;;;;;;;3.15;2.70;;;29.40;99.90;;;;;;1893028;76;21146;-78
2023/09/06 14:08:09;;;;;;;4.10;2.98;;;29.50;99.90;;;;;;1893002;76;21581;-78
2023/09/06 14:11:01;;;;;;;5.10;2.85;;;29.90;99.90;;;;;;1893160;76;21098;-79
2023/09/06 14:13:53;;;;;;;3.05;2.47;;;30.50;99.90;;;;;;1892946;76;21110;-78
2023/09/06 14:16:45;;;;;;;3.52;2.58;;;30.70;99.90;;;;;;1892732;76;21136;-79
2023/09/06 14:19:37;;;;;;;3.85;3.30;;;31.10;99.90;;;;;;1892874;76;21135;-78
2023/09/06 14:22:28;;;;;;;4.50;2.67;;;31.00;99.90;;;;;;1892776;76;21137;-79
2023/09/06 14:25:20;;;;;;;2.83;2.62;;;31.20;99.90;;;;;;1893022;76;21124;-79
2023/09/06 14:28:12;;;;;;;3.85;2.70;;;31.40;99.90;;;;;;1892831;76;21534;-79
2023/09/06 14:31:03;;;;;;;5.17;2.98;;;31.40;99.90;;;;;;1893152;76;21095;-80
2023/09/06 14:33:55;;;;;;;3.40;2.98;;;31.40;99.90;;;;;;1892751;76;21120;-79
2023/09/06 14:36:47;;;;;;;3.22;2.62;;;31.50;99.90;;;;;;1876830;75;21167;-79
2023/09/06 14:39:39;;;;;;;2.62;2.35;;;32.00;99.90;;;;;;1871542;77;21147;-79
2023/09/06 14:42:32;;;;;;;3.92;2.90;;;32.10;99.90;;;;;;1871761;77;21111;-79
2023/09/06 14:45:24;;;;;;;3.17;2.60;;;32.20;99.90;;;;;;1871710;77;21103;-80
2023/09/06 14:48:17;;;;;;;4.80;2.90;;;32.20;99.90;;;;;;1883143;76;21192;-80
2023/09/06 14:51:09;;;;;;;3.65;2.60;;;31.90;99.90;;;;;;1883356;76;21149;-79
2023/09/06 14:54:00;;;;;;;6.87;2.92;;;31.80;99.90;;;;;;1883431;76;21070;-78
2023/09/06 14:56:52;;;;;;;4.85;2.92;;;31.90;99.90;;;;;;1883427;76;21152;-80
2023/09/06 14:59:44;;;;;;;3.52;2.65;;;32.10;99.90;;;;;;1871559;77;21087;-79
2023/09/06 15:02:35;;;;;;;4.62;3.10;;;32.10;99.90;;;;;;1871595;77;21265;-78